createdAt,value
2018-04-25T00:01:50.530Z,10.03
2018-04-25T00:04:17.240Z,9.70
2018-04-25T00:06:43.920Z,14.20
2018-04-25T00:09:10.599Z,14.20
2018-04-25T00:11:37.291Z,10.33
2018-04-25T00:14:03.976Z,11.10
2018-04-25T00:16:30.668Z,12.53
2018-04-25T00:18:57.410Z,11.17
2018-04-25T00:21:24.099Z,7.60
2018-04-25T00:23:50.791Z,8.33
2018-04-25T00:26:17.488Z,9.53
2018-04-25T00:28:44.268Z,7.93
2018-04-25T00:31:10.951Z,14.90
2018-04-25T00:33:37.664Z,8.67
2018-04-25T00:36:04.400Z,6.77
2018-04-25T00:38:31.084Z,6.13
2018-04-25T00:40:57.776Z,7.40
2018-04-25T00:43:24.459Z,8.17
2018-04-25T00:45:51.164Z,6.53
2018-04-25T00:48:17.831Z,8.53
2018-04-25T00:50:44.759Z,8.27
2018-04-25T00:53:11.438Z,5.50
2018-04-25T00:55:38.175Z,6.30
2018-04-25T00:58:04.865Z,5.23
2018-04-25T01:00:31.528Z,5.60
2018-04-25T01:02:58.232Z,5.43
2018-04-25T01:05:24.920Z,5.20
2018-04-25T01:07:51.607Z,5.30
2018-04-25T01:10:18.328Z,7.07
2018-04-25T01:12:45.025Z,5.17
2018-04-25T01:15:11.700Z,6.10
2018-04-25T01:17:38.387Z,10.07
2018-04-25T01:20:05.089Z,8.10
2018-04-25T01:22:31.768Z,7.40
2018-04-25T01:25:00.327Z,5.10
2018-04-25T01:27:27.000Z,5.47
2018-04-25T01:29:53.696Z,5.67
2018-04-25T01:32:20.367Z,7.07
2018-04-25T01:34:50.851Z,6.47
2018-04-25T01:37:17.521Z,5.13
2018-04-25T01:39:59.081Z,5.23
2018-04-25T01:45:30.899Z,5.03
2018-04-25T01:48:00.505Z,10.57
2018-04-25T01:50:32.110Z,7.50
2018-04-25T01:53:04.647Z,5.00
2018-04-25T01:55:37.261Z,6.37
2018-04-25T01:58:09.720Z,10.50
2018-04-25T02:00:42.417Z,6.30
2018-04-25T02:03:08.868Z,6.23
2018-04-25T02:05:35.594Z,5.93
2018-04-25T02:08:02.287Z,7.90
2018-04-25T02:10:28.960Z,5.67
2018-04-25T02:12:55.639Z,7.73
2018-04-25T02:15:22.328Z,6.13
2018-04-25T02:17:49.036Z,9.20
2018-04-25T02:20:15.716Z,9.67
2018-04-25T02:22:42.400Z,9.03
2018-04-25T02:25:09.105Z,12.73
2018-04-25T02:27:35.788Z,7.33
2018-04-25T02:30:02.530Z,9.67
2018-04-25T02:32:29.214Z,9.70
2018-04-25T02:34:55.933Z,8.87
2018-04-25T02:37:22.632Z,8.40
2018-04-25T02:39:49.484Z,11.73
2018-04-25T02:42:16.168Z,9.37
2018-04-25T02:44:42.844Z,9.47
2018-04-25T02:47:09.548Z,10.07
2018-04-25T02:49:36.244Z,10.10
2018-04-25T02:52:02.943Z,9.27
2018-04-25T02:54:29.612Z,9.63
2018-04-25T02:56:56.283Z,8.57
2018-04-25T02:59:23.056Z,9.83
2018-04-25T03:01:49.776Z,10.87
2018-04-25T03:04:16.562Z,9.63
2018-04-25T03:06:43.263Z,10.10
2018-04-25T03:09:09.948Z,9.00
2018-04-25T03:11:36.649Z,8.93
2018-04-25T03:14:03.345Z,8.90
2018-04-25T03:16:30.100Z,8.60
2018-04-25T03:18:56.863Z,9.37
2018-04-25T03:21:23.545Z,8.47
2018-04-25T03:23:50.238Z,11.03
2018-04-25T03:26:17.029Z,10.73
2018-04-25T03:28:43.720Z,9.10
2018-04-25T03:31:10.395Z,10.13
2018-04-25T03:33:37.107Z,10.57
2018-04-25T03:36:03.803Z,10.67
2018-04-25T03:38:30.476Z,11.83
2018-04-25T03:40:57.181Z,10.50
2018-04-25T03:43:23.863Z,10.87
2018-04-25T03:45:50.583Z,10.93
2018-04-25T03:48:17.280Z,8.83
2018-04-25T03:50:43.960Z,10.73
2018-04-25T03:53:10.644Z,9.17
2018-04-25T03:55:37.371Z,9.60
2018-04-25T03:58:04.156Z,9.73
2018-04-25T04:00:30.835Z,10.87
2018-04-25T04:02:57.531Z,6.63
2018-04-25T04:05:24.203Z,6.97
2018-04-25T04:07:50.907Z,7.80
2018-04-25T04:10:17.583Z,6.97
2018-04-25T04:12:44.255Z,8.07
2018-04-25T04:15:10.967Z,12.10
2018-04-25T04:17:37.647Z,30.07
2018-04-25T04:20:04.328Z,7.83
2018-04-25T04:22:32.276Z,8.40
2018-04-25T04:24:59.044Z,8.33
2018-04-25T04:27:25.636Z,7.43
2018-04-25T04:29:52.332Z,7.00
2018-04-25T04:32:19.067Z,7.70
2018-04-25T04:34:45.755Z,6.33
2018-04-25T04:37:12.447Z,7.63
2018-04-25T04:39:39.124Z,4.40
2018-04-25T04:42:05.828Z,5.70
2018-04-25T04:44:32.504Z,4.30
2018-04-25T04:46:59.222Z,7.30
2018-04-25T04:49:26.013Z,6.40
2018-04-25T04:51:52.696Z,6.80
2018-04-25T04:54:19.370Z,6.00
2018-04-25T04:56:46.083Z,5.63
2018-04-25T04:59:12.761Z,5.07
2018-04-25T05:01:39.537Z,6.27
2018-04-25T05:04:06.222Z,5.67
2018-04-25T05:06:32.920Z,6.33
2018-04-25T05:08:59.594Z,6.77
2018-04-25T05:11:26.340Z,7.03
2018-04-25T05:13:53.043Z,5.40
2018-04-25T05:16:19.735Z,6.23
2018-04-25T05:18:46.439Z,7.63
2018-04-25T05:21:13.127Z,4.77
2018-04-25T05:23:39.803Z,5.80
2018-04-25T05:26:06.495Z,8.60
2018-04-25T05:28:33.212Z,5.77
2018-04-25T05:30:59.947Z,5.63
2018-04-25T05:33:26.887Z,6.30
2018-04-25T05:35:53.588Z,8.40
2018-04-25T05:38:20.290Z,6.10
2018-04-25T05:40:46.997Z,5.93
2018-04-25T05:43:13.679Z,7.23
2018-04-25T05:45:40.383Z,4.87
2018-04-25T05:48:07.075Z,8.23
2018-04-25T05:50:34.905Z,4.60
2018-04-25T05:53:01.656Z,8.23
2018-04-25T05:55:28.336Z,3.47
2018-04-25T05:57:55.031Z,4.70
2018-04-25T06:00:21.855Z,4.10
2018-04-25T06:02:48.540Z,4.68
2018-04-25T06:05:15.245Z,3.90
2018-04-25T06:07:41.904Z,4.67
2018-04-25T06:10:08.617Z,2.90
2018-04-25T06:12:35.442Z,4.23
2018-04-25T06:15:02.283Z,6.93
2018-04-25T06:17:28.984Z,4.27
2018-04-25T06:19:55.694Z,3.90
2018-04-25T06:22:22.436Z,3.23
2018-04-25T06:24:49.107Z,3.27
2018-04-25T06:27:15.884Z,3.13
2018-04-25T06:29:42.825Z,4.23
2018-04-25T06:32:09.548Z,5.10
2018-04-25T06:34:36.223Z,3.10
2018-04-25T06:37:02.915Z,3.37
2018-04-25T06:39:29.680Z,4.80
2018-04-25T06:41:56.340Z,3.80
2018-04-25T06:44:23.120Z,5.67
2018-04-25T06:46:49.885Z,4.60
2018-04-25T06:49:16.568Z,5.03
2018-04-25T06:51:44.517Z,5.30
2018-04-25T06:54:11.319Z,5.37
2018-04-25T06:56:38.084Z,5.53
2018-04-25T06:59:04.688Z,5.97
2018-04-25T07:01:31.388Z,4.60
2018-04-25T07:03:58.318Z,4.27
2018-04-25T07:06:25.024Z,4.07
2018-04-25T07:08:51.889Z,3.63
2018-04-25T07:11:18.566Z,4.63
2018-04-25T07:13:45.431Z,5.10
2018-04-25T07:16:12.108Z,5.57
2018-04-25T07:18:38.786Z,6.30
2018-04-25T07:21:05.497Z,7.57
2018-04-25T07:23:32.199Z,6.80
2018-04-25T07:25:58.896Z,6.97
2018-04-25T07:28:25.619Z,7.00
2018-04-25T07:30:52.330Z,8.10
2018-04-25T07:33:19.019Z,8.40
2018-04-25T07:35:45.719Z,7.47
2018-04-25T07:38:12.411Z,6.10
2018-04-25T07:40:39.113Z,7.23
2018-04-25T07:43:05.815Z,6.07
2018-04-25T07:45:32.508Z,6.70
2018-04-25T07:47:59.413Z,7.37
2018-04-25T07:50:26.089Z,7.43
2018-04-25T07:52:52.787Z,7.67
2018-04-25T07:55:19.507Z,8.53
2018-04-25T07:57:46.228Z,8.87
2018-04-25T08:00:13.044Z,8.10
2018-04-25T08:02:39.761Z,8.57
2018-04-25T08:05:06.459Z,9.23
2018-04-25T08:07:33.145Z,9.50
2018-04-25T08:09:59.868Z,10.70
2018-04-25T08:12:32.471Z,10.10
2018-04-25T08:15:04.988Z,9.90
2018-04-25T08:17:37.551Z,10.17
2018-04-25T08:20:19.148Z,14.90
2018-04-25T08:22:45.980Z,12.90
2018-04-25T08:25:12.676Z,11.90
2018-04-25T08:27:39.388Z,11.93
2018-04-25T08:30:06.109Z,13.10
2018-04-25T08:32:32.815Z,13.77
2018-04-25T08:34:59.503Z,13.27
2018-04-25T08:37:26.199Z,14.10
2018-04-25T08:39:52.884Z,15.60
2018-04-25T08:42:19.591Z,16.63
2018-04-25T08:44:46.300Z,16.53
2018-04-25T08:47:12.995Z,17.93
2018-04-25T08:49:39.819Z,19.53
2018-04-25T08:52:06.491Z,18.93
2018-04-25T08:54:33.199Z,15.33
2018-04-25T08:56:59.899Z,20.20
2018-04-25T08:59:26.584Z,16.50
2018-04-25T09:01:53.299Z,20.07
2018-04-25T09:04:19.980Z,14.93
2018-04-25T09:06:46.699Z,14.37
2018-04-25T09:09:13.408Z,22.37
2018-04-25T09:11:40.168Z,14.90
2018-04-25T09:14:06.868Z,11.00
2018-04-25T09:16:33.655Z,11.80
2018-04-25T09:19:00.368Z,16.27
2018-04-25T09:21:27.072Z,13.50
2018-04-25T09:23:53.837Z,11.30
2018-04-25T09:26:20.525Z,13.93
2018-04-25T09:28:47.237Z,10.70
2018-04-25T09:31:14.034Z,9.20
2018-04-25T09:33:40.695Z,9.20
2018-04-25T09:36:07.396Z,10.03
2018-04-25T09:38:34.107Z,8.93
2018-04-25T09:41:00.844Z,8.70
2018-04-25T09:43:27.584Z,8.77
2018-04-25T09:45:54.267Z,8.13
2018-04-25T09:48:21.103Z,6.90
2018-04-25T09:50:47.879Z,7.27
2018-04-25T09:53:14.551Z,6.40
2018-04-25T09:55:41.303Z,8.37
2018-04-25T09:58:08.023Z,7.90
2018-04-25T10:00:40.212Z,7.80
2018-04-25T10:03:12.632Z,10.50
2018-04-25T10:05:39.304Z,7.67
2018-04-25T10:08:05.995Z,8.10
2018-04-25T10:10:32.708Z,5.60
2018-04-25T10:12:59.395Z,5.27
2018-04-25T10:15:26.080Z,10.87
2018-04-25T10:17:52.783Z,7.20
2018-04-25T10:20:19.580Z,8.07
2018-04-25T10:22:46.377Z,12.00
2018-04-25T10:25:13.088Z,13.00
2018-04-25T10:27:39.784Z,9.80
2018-04-25T10:30:06.553Z,7.20
2018-04-25T10:32:33.256Z,13.27
2018-04-25T10:34:59.935Z,8.70
2018-04-25T10:37:26.636Z,8.23
2018-04-25T10:39:53.351Z,7.37
2018-04-25T10:42:20.019Z,9.57
2018-04-25T10:44:46.823Z,8.87
2018-04-25T10:47:13.538Z,10.77
2018-04-25T10:49:40.247Z,9.67
2018-04-25T10:52:06.904Z,7.67
2018-04-25T10:54:33.668Z,6.77
2018-04-25T10:57:00.347Z,7.67
2018-04-25T10:59:27.102Z,7.77
2018-04-25T11:01:53.785Z,9.37
2018-04-25T11:04:20.524Z,8.53
2018-04-25T11:06:47.268Z,7.03
2018-04-25T11:09:13.936Z,7.90
2018-04-25T11:11:40.667Z,8.43
2018-04-25T11:14:07.399Z,9.17
2018-04-25T11:16:34.083Z,8.23
2018-04-25T11:19:00.780Z,8.43
2018-04-25T11:21:27.475Z,9.37
2018-04-25T11:23:54.183Z,20.63
2018-04-25T11:26:20.897Z,10.80
2018-04-25T11:28:47.627Z,9.60
2018-04-25T11:31:14.337Z,9.97
2018-04-25T11:33:41.062Z,11.30
2018-04-25T11:36:07.748Z,12.93
2018-04-25T11:38:34.459Z,10.57
2018-04-25T11:41:01.183Z,10.63
2018-04-25T11:43:27.904Z,12.93
2018-04-25T11:45:54.608Z,11.40
2018-04-25T11:48:21.290Z,11.17
2018-04-25T11:50:48.032Z,14.90
2018-04-25T11:53:14.712Z,9.17
2018-04-25T11:55:41.431Z,9.53
2018-04-25T11:58:08.116Z,8.43
2018-04-25T12:00:34.780Z,8.63
2018-04-25T12:03:01.476Z,8.77
2018-04-25T12:05:28.369Z,9.60
2018-04-25T12:07:55.047Z,8.10
2018-04-25T12:10:21.743Z,8.47
2018-04-25T12:12:48.435Z,8.80
2018-04-25T12:15:15.103Z,8.80
2018-04-25T12:17:41.817Z,7.50
2018-04-25T12:20:08.665Z,8.87
2018-04-25T12:22:35.381Z,7.80
2018-04-25T12:25:02.059Z,8.30
2018-04-25T12:27:28.752Z,17.40
2018-04-25T12:29:55.463Z,11.13
2018-04-25T12:32:22.152Z,11.03
2018-04-25T12:34:48.868Z,11.40
2018-04-25T12:37:15.554Z,10.77
2018-04-25T12:39:42.248Z,10.73
2018-04-25T12:42:08.936Z,8.40
2018-04-25T12:44:35.664Z,8.10
2018-04-25T12:47:02.349Z,8.47
2018-04-25T12:49:29.025Z,9.23
2018-04-25T12:51:55.912Z,10.13
2018-04-25T12:54:22.592Z,7.43
2018-04-25T12:56:49.312Z,5.83
2018-04-25T12:59:15.995Z,6.43
2018-04-25T13:01:42.717Z,6.50
2018-04-25T13:04:09.372Z,6.70
2018-04-25T13:06:36.107Z,7.43
2018-04-25T13:09:02.847Z,12.90
2018-04-25T13:11:29.597Z,9.07
2018-04-25T13:13:56.336Z,8.47
2018-04-25T13:16:23.017Z,10.07
2018-04-25T13:18:49.718Z,10.40
2018-04-25T13:21:16.405Z,7.33
2018-04-25T13:23:43.083Z,6.97
2018-04-25T13:26:09.752Z,6.70
2018-04-25T13:28:36.447Z,8.57
2018-04-25T13:31:03.141Z,6.67
2018-04-25T13:33:29.824Z,8.83
2018-04-25T13:35:56.614Z,6.77
2018-04-25T13:38:23.559Z,7.50
2018-04-25T13:40:50.268Z,12.10
2018-04-25T13:43:16.984Z,6.97
2018-04-25T13:45:43.671Z,5.87
2018-04-25T13:48:10.383Z,5.90
2018-04-25T13:50:37.087Z,5.50
2018-04-25T13:53:03.740Z,6.23
2018-04-25T13:55:30.440Z,6.17
2018-04-25T13:57:57.135Z,6.60
2018-04-25T14:00:23.841Z,10.30
2018-04-25T14:02:50.555Z,6.93
2018-04-25T14:05:17.408Z,12.10
2018-04-25T14:07:44.090Z,9.30
2018-04-25T14:10:10.805Z,8.40
2018-04-25T14:12:37.716Z,5.13
2018-04-25T14:15:04.424Z,5.10
2018-04-25T14:17:31.113Z,4.33
2018-04-25T14:19:57.915Z,8.43
2018-04-25T14:22:24.604Z,4.37
2018-04-25T14:24:51.344Z,5.10
2018-04-25T14:27:18.120Z,5.17
2018-04-25T14:29:44.958Z,8.67
2018-04-25T14:32:11.643Z,10.73
2018-04-25T14:34:38.331Z,8.30
2018-04-25T14:37:05.049Z,6.00
2018-04-25T14:39:31.744Z,9.97
2018-04-25T14:41:58.452Z,5.27
2018-04-25T14:44:25.123Z,11.93
2018-04-25T14:46:51.819Z,10.57
2018-04-25T14:49:18.515Z,5.30
2018-04-25T14:51:45.199Z,5.80
2018-04-25T14:54:11.931Z,7.67
2018-04-25T14:56:38.636Z,10.00
2018-04-25T14:59:05.308Z,12.23
2018-04-25T15:01:32.099Z,8.90
2018-04-25T15:03:58.698Z,6.97
2018-04-25T15:06:25.457Z,7.17
2018-04-25T15:08:52.195Z,6.70
2018-04-25T15:11:18.899Z,6.20
2018-04-25T15:13:45.589Z,11.00
2018-04-25T15:16:12.297Z,11.10
2018-04-25T15:18:39.115Z,5.97
2018-04-25T15:21:05.806Z,5.90
2018-04-25T15:23:32.500Z,7.17
2018-04-25T15:25:59.291Z,5.17
2018-04-25T15:28:26.002Z,6.93
2018-04-25T15:30:52.679Z,6.10
2018-04-25T15:33:19.356Z,8.87
2018-04-25T15:35:46.084Z,6.20
2018-04-25T15:38:12.764Z,7.30
2018-04-25T15:40:39.501Z,6.00
2018-04-25T15:43:06.266Z,7.23
2018-04-25T15:45:32.991Z,10.33
2018-04-25T15:47:59.671Z,10.97
2018-04-25T15:50:26.365Z,11.00
2018-04-25T15:52:53.069Z,15.17
2018-04-25T15:55:19.772Z,14.87
2018-04-25T15:57:46.636Z,16.87
2018-04-25T16:00:13.328Z,13.90
2018-04-25T16:02:40.135Z,11.40
2018-04-25T16:05:06.828Z,10.53
2018-04-25T16:07:33.600Z,11.63
2018-04-25T16:10:00.334Z,12.10
2018-04-25T16:12:27.184Z,11.70
2018-04-25T16:14:53.900Z,11.00
2018-04-25T16:17:20.667Z,12.33
2018-04-25T16:19:47.380Z,11.27
2018-04-25T16:22:14.210Z,13.03
2018-04-25T16:24:40.916Z,11.23
2018-04-25T16:27:07.669Z,12.17
2018-04-25T16:29:34.372Z,10.90
2018-04-25T16:32:01.065Z,10.37
2018-04-25T16:34:27.777Z,10.43
2018-04-25T16:36:54.570Z,9.67
2018-04-25T16:39:21.239Z,8.10
2018-04-25T16:41:47.954Z,9.33
2018-04-25T16:44:14.681Z,10.53
2018-04-25T16:46:41.449Z,7.20
2018-04-25T16:49:08.130Z,8.60
2018-04-25T16:51:34.829Z,6.57
2018-04-25T16:54:01.503Z,7.50
2018-04-25T16:56:28.205Z,7.10
2018-04-25T16:58:54.925Z,7.40
2018-04-25T17:01:21.640Z,6.60
2018-04-25T17:03:48.349Z,7.47
2018-04-25T17:06:15.040Z,6.90
2018-04-25T17:08:41.906Z,6.43
2018-04-25T17:11:08.611Z,6.63
2018-04-25T17:13:35.313Z,6.23
2018-04-25T17:16:02.014Z,6.60
2018-04-25T17:18:28.764Z,7.43
2018-04-25T17:20:55.512Z,6.60
2018-04-25T17:23:22.217Z,7.10
2018-04-25T17:25:48.922Z,6.03
2018-04-25T17:28:15.785Z,5.63
2018-04-25T17:30:42.481Z,5.20
2018-04-25T17:33:09.182Z,6.40
2018-04-25T17:35:35.891Z,6.23
2018-04-25T17:38:02.588Z,5.93
2018-04-25T17:40:29.287Z,5.77
2018-04-25T17:42:56.082Z,6.23
2018-04-25T17:45:22.877Z,5.87
2018-04-25T17:47:49.600Z,5.83
2018-04-25T17:50:16.382Z,5.43
2018-04-25T17:52:43.091Z,4.83
2018-04-25T17:55:09.812Z,5.30
2018-04-25T17:57:36.581Z,5.57
2018-04-25T18:00:03.281Z,5.20
2018-04-25T18:02:29.975Z,5.23
2018-04-25T18:04:56.685Z,6.70
2018-04-25T18:07:23.387Z,6.17
2018-04-25T18:09:50.196Z,5.20
2018-04-25T18:12:16.892Z,5.03
2018-04-25T18:14:43.607Z,5.10
2018-04-25T18:17:10.389Z,5.27
2018-04-25T18:19:37.038Z,6.40
2018-04-25T18:22:03.752Z,7.27
2018-04-25T18:24:30.437Z,4.80
2018-04-25T18:26:57.167Z,4.60
2018-04-25T18:29:23.871Z,4.70
2018-04-25T18:31:50.593Z,5.47
2018-04-25T18:34:17.278Z,5.40
2018-04-25T18:36:44.023Z,5.03
2018-04-25T18:39:10.697Z,4.87
2018-04-25T18:41:37.403Z,5.70
2018-04-25T18:44:04.122Z,4.87
2018-04-25T18:49:03.952Z,8.87
2018-04-25T18:51:30.674Z,5.33
2018-04-25T18:53:57.382Z,10.27
2018-04-25T18:56:24.126Z,5.67
2018-04-25T18:58:50.864Z,5.37
2018-04-25T19:01:17.604Z,4.77
2018-04-25T19:03:44.356Z,4.60
2018-04-25T19:06:11.093Z,5.13
2018-04-25T19:08:37.841Z,8.30
2018-04-25T19:11:04.553Z,5.90
2018-04-25T19:13:31.259Z,6.23
2018-04-25T19:15:57.984Z,5.37
2018-04-25T19:18:24.694Z,5.27
2018-04-25T19:20:51.389Z,6.83
2018-04-25T19:23:18.138Z,8.83
2018-04-25T19:25:44.835Z,5.50
2018-04-25T19:28:11.557Z,7.17
2018-04-25T19:30:38.243Z,5.27
2018-04-25T19:33:04.963Z,7.00
2018-04-25T19:35:31.670Z,4.33
2018-04-25T19:37:58.372Z,5.27
2018-04-25T19:40:25.070Z,5.40
2018-04-25T19:42:51.879Z,9.10
2018-04-25T19:45:18.584Z,5.90
2018-04-25T19:47:45.273Z,6.00
2018-04-25T19:50:12.164Z,8.37
2018-04-25T19:52:38.873Z,7.57
2018-04-25T19:55:05.589Z,13.40
2018-04-25T19:57:32.477Z,5.70
2018-04-25T19:59:59.095Z,8.83
2018-04-25T20:02:25.797Z,6.13
2018-04-25T20:04:52.623Z,6.80
2018-04-25T20:07:19.334Z,7.70
2018-04-25T20:09:46.047Z,7.97
2018-04-25T20:12:12.740Z,9.47
2018-04-25T20:14:39.459Z,9.83
2018-04-25T20:17:06.179Z,8.20
2018-04-25T20:19:32.920Z,7.80
2018-04-25T20:21:59.639Z,10.40
2018-04-25T20:24:26.342Z,7.43
2018-04-25T20:26:53.078Z,9.43
2018-04-25T20:29:19.774Z,10.50
2018-04-25T20:31:46.483Z,12.20
2018-04-25T20:34:13.167Z,8.50
2018-04-25T20:36:39.952Z,11.63
2018-04-25T20:39:06.625Z,9.83
2018-04-25T20:41:33.340Z,8.73
2018-04-25T20:44:00.192Z,9.30
2018-04-25T20:46:26.929Z,8.73
2018-04-25T20:48:53.636Z,12.93
2018-04-25T20:51:20.332Z,9.90
2018-04-25T20:53:47.083Z,8.33
2018-04-25T20:56:13.771Z,8.90
2018-04-25T20:58:40.485Z,9.93
2018-04-25T21:01:07.185Z,8.93
2018-04-25T21:03:33.867Z,8.57
2018-04-25T21:06:00.589Z,14.07
2018-04-25T21:08:27.274Z,8.43
2018-04-25T21:10:53.968Z,8.70
2018-04-25T21:13:20.670Z,8.90
2018-04-25T21:15:47.385Z,10.57
2018-04-25T21:18:14.080Z,11.50
2018-04-25T21:20:40.769Z,10.97
2018-04-25T21:23:07.519Z,13.20
2018-04-25T21:25:34.193Z,7.40
2018-04-25T21:28:00.884Z,10.20
2018-04-25T21:30:27.596Z,9.50
2018-04-25T21:32:54.285Z,15.27
2018-04-25T21:35:20.985Z,12.57
2018-04-25T21:37:47.681Z,10.23
2018-04-25T21:40:14.394Z,11.17
2018-04-25T21:42:41.095Z,9.60
2018-04-25T21:45:07.837Z,7.03
2018-04-25T21:47:34.520Z,7.37
2018-04-25T21:50:01.206Z,8.13
2018-04-25T21:52:27.940Z,5.90
2018-04-25T21:54:54.614Z,8.47
2018-04-25T21:57:21.923Z,8.80
2018-04-25T21:59:48.599Z,11.03
2018-04-25T22:02:15.324Z,5.40
2018-04-25T22:04:42.161Z,11.53
2018-04-25T22:07:08.884Z,8.07
2018-04-25T22:09:35.564Z,12.63
2018-04-25T22:12:02.478Z,10.10
2018-04-25T22:14:29.158Z,9.30
2018-04-25T22:16:55.860Z,6.70
2018-04-25T22:19:22.600Z,5.33
2018-04-25T22:21:49.276Z,7.47
2018-04-25T22:24:16.095Z,11.90
2018-04-25T22:26:42.788Z,6.07
2018-04-25T22:29:09.496Z,5.93
2018-04-25T22:31:36.280Z,10.17
2018-04-25T22:34:03.038Z,11.70
2018-04-25T22:36:29.715Z,4.50
2018-04-25T22:38:56.418Z,7.50
2018-04-25T22:41:23.115Z,7.13
2018-04-25T22:43:49.808Z,5.63
2018-04-25T22:46:16.537Z,9.87
2018-04-25T22:48:43.203Z,6.23
2018-04-25T22:51:09.879Z,4.37
2018-04-25T22:53:36.664Z,6.00
2018-04-25T22:56:03.328Z,4.50
2018-04-25T22:58:30.058Z,5.57
2018-04-25T23:00:56.721Z,4.60
2018-04-25T23:03:23.415Z,7.47
2018-04-25T23:05:50.144Z,3.70
2018-04-25T23:08:16.896Z,5.47
2018-04-25T23:10:43.579Z,4.80
2018-04-25T23:13:10.251Z,3.67
2018-04-25T23:15:36.944Z,4.77
2018-04-25T23:18:03.812Z,7.37
2018-04-25T23:20:30.533Z,6.30
2018-04-25T23:22:57.200Z,6.10
2018-04-25T23:25:23.907Z,5.27
2018-04-25T23:27:50.576Z,5.40
2018-04-25T23:30:17.243Z,4.27
2018-04-25T23:32:43.933Z,5.47
2018-04-25T23:35:10.814Z,3.70
2018-04-25T23:37:37.513Z,5.60
2018-04-25T23:40:04.208Z,4.93
2018-04-25T23:42:30.920Z,7.30
2018-04-25T23:44:57.596Z,8.20
2018-04-25T23:47:24.295Z,4.73
2018-04-25T23:49:50.990Z,8.57
2018-04-25T23:52:17.679Z,5.03
2018-04-25T23:54:44.381Z,12.93
2018-04-25T23:57:11.056Z,5.33
2018-04-25T23:59:37.835Z,4.63
